Sea Wolf — WDD2219 — position and weather

sailwx.info

Track history (hours):
 
Tides and Currents Weather Stations Pressure Air Temp Water Temp Dewpoint Dewpoint Depression Visibility Wind Speed Wind Dir Waves Ship Positions

Sea Wolf

Owner: Sea Wolf Adventures, Inc, Gustavus, AK. More information available from US FCC via Universal Licensing System and Coast Guard Vessel Documentation Center.

Last reported at 2017-Oct-07 19:45 UTC. Time now 2017-Oct-19 14:55 UTC.
Position N 48°28' W 122°44'.
Warning: this ship's position is 11 days out of date.

Length 30 m.

Type: Passenger vessel. MMSI: 367085000.

Date/timePositionNaut miles runAvg speedWind from/ knotsBaromVisibWave heightAir tempDewpointWater temp
2017-Oct-07 19:45N 48°28' W 122°44'410.1
2017-Oct-07 19:21N 48°31' W 122°42'610.4
2017-Oct-07 18:49N 48°36' W 122°38'2 0.1
2017-Oct-07 00:22N 48°38' W 122°38'3 8.3
2017-Oct-07 00:00N 48°38' W 122°43'5 9.2
2017-Oct-06 23:30N 48°36' W 122°49'4 8.5
2017-Oct-06 23:00N 48°35' W 122°55'4 7.1
2017-Oct-06 22:28N 48°36' W 123°01'6 1.6
2017-Oct-06 18:51N 48°37' W 123°10'2 3.3
2017-Oct-06 18:12N 48°36' W 123°12'1 6.6
2017-Oct-06 18:00N 48°34' W 123°11'3 6.6
2017-Oct-06 17:30N 48°31' W 123°10'3 6.3
2017-Oct-06 17:00N 48°29' W 123°06'4 7.2
2017-Oct-06 16:22N 48°26' W 123°01'3 7.4
2017-Oct-06 16:00N 48°25' W 122°57'4 0.2
2017-Oct-05 18:31N 48°26' W 122°51'0 7.7
2017-Oct-05 18:30N 48°26' W 122°51'2 1.5
2017-Oct-05 17:21N 48°25' W 122°53'0 0.0
2017-Oct-05 16:45N 48°25' W 122°53'2 1.3
2017-Oct-05 15:30N 48°27' W 122°55'4 8.4
2017-Oct-05 15:00N 48°31' W 122°58'3 4.8
2017-Oct-05 14:20N 48°34' W 122°59'0 0.1
2017-Oct-05 13:59N 48°34' W 122°59'0 0.0
2017-Oct-05 13:23N 48°34' W 122°59'0 0.0
2017-Oct-05 12:59N 48°34' W 122°59'0 0.0
2017-Oct-05 12:29N 48°34' W 122°59'0 0.1
2017-Oct-05 11:59N 48°34' W 122°59'0 0.1
2017-Oct-05 11:26N 48°34' W 122°59'0 0.0
2017-Oct-05 10:59N 48°34' W 122°59'0 0.1
2017-Oct-05 10:29N 48°34' W 122°59'0 0.1
2017-Oct-05 09:59N 48°34' W 122°59'0 0.0
2017-Oct-05 09:20N 48°34' W 122°59'0 0.0
2017-Oct-05 08:59N 48°34' W 122°59'0 0.0
2017-Oct-05 08:26N 48°34' W 122°59'0 0.0
2017-Oct-05 07:53N 48°34' W 122°59'0 0.0
2017-Oct-05 07:29N 48°34' W 122°59'0 0.0
2017-Oct-05 06:59N 48°34' W 122°59'0 0.0
2017-Oct-05 06:29N 48°34' W 122°59'0 0.0
2017-Oct-05 05:59N 48°34' W 122°59'0 0.0
2017-Oct-05 05:29N 48°34' W 122°59'0 0.0
2017-Oct-05 04:59N 48°34' W 122°59'0 0.0
2017-Oct-05 04:29N 48°34' W 122°59'0 0.0
2017-Oct-05 03:59N 48°34' W 122°59'0 0.0
2017-Oct-05 03:23N 48°34' W 122°59'0 0.0
2017-Oct-05 02:59N 48°34' W 122°59'1 1.9
2017-Oct-05 02:30N 48°34' W 122°60'12 0.3
2017-Oct-03 08:42N 48°46' W 122°54'0 0.0
2017-Oct-02 11:30N 48°46' W 122°54'7 0.8
2017-Oct-02 02:11N 48°41' W 122°46'1 7.0
2017-Oct-02 01:58N 48°40' W 122°44'4 7.8
2017-Oct-02 01:30N 48°39' W 122°38'8 0.4
2017-Oct-01 03:12N 48°45' W 122°30'8 0.2
2017-Sep-29 16:18N 48°39' W 122°38'3 8.7
2017-Sep-29 16:00N 48°40' W 122°42'25 1.7
2017-Sep-29 01:38N 48°49' W 123°17'1 7.8
2017-Sep-29 01:30N 48°49' W 123°18'2 4.5
2017-Sep-29 01:00N 48°51' W 123°19'3 5.5
2017-Sep-29 00:29N 48°54' W 123°19'4 9.3
2017-Sep-29 00:00N 48°57' W 123°24'5 9.0
2017-Sep-28 23:29N 49°01' W 123°29'5 8.4
2017-Sep-28 22:51N 49°04' W 123°35'3 8.5
2017-Sep-28 22:30N 49°06' W 123°38'4 8.2
2017-Sep-28 22:00N 49°10' W 123°42'4 8.5
2017-Sep-28 21:29N 49°13' W 123°46'4 8.4
2017-Sep-28 21:00N 49°16' W 123°51'4 8.4
2017-Sep-28 20:31N 49°19' W 123°56'4 8.5
2017-Sep-28 20:01N 49°22' W 124°00'5 8.9
2017-Sep-28 19:30N 49°25' W 124°05'4 8.6
2017-Sep-28 19:00N 49°28' W 124°10'2 4.5
2017-Sep-28 18:29N 49°29' W 124°12'0 0.1
2017-Sep-28 17:59N 49°29' W 124°12'0 0.0
2017-Sep-28 17:29N 49°29' W 124°12'0 0.1
2017-Sep-28 17:00N 49°29' W 124°12'0 0.0
2017-Sep-28 16:26N 49°29' W 124°12'0 0.0
2017-Sep-28 15:59N 49°29' W 124°12'0 0.0
2017-Sep-28 15:29N 49°29' W 124°12'0 0.0
2017-Sep-28 14:59N 49°29' W 124°12'0 0.0
2017-Sep-28 14:29N 49°29' W 124°12'0 0.0
2017-Sep-28 13:59N 49°29' W 124°12'0 0.0
2017-Sep-28 13:23N 49°29' W 124°12'0 0.0
2017-Sep-28 12:59N 49°29' W 124°12'0 0.0
2017-Sep-28 12:29N 49°29' W 124°12'0 0.0
2017-Sep-28 11:59N 49°29' W 124°12'0 0.0
2017-Sep-28 11:26N 49°29' W 124°12'0 0.0
2017-Sep-28 10:59N 49°29' W 124°12'0 0.0
2017-Sep-28 10:29N 49°29' W 124°12'0 0.0
2017-Sep-28 09:53N 49°29' W 124°12'0 0.0
2017-Sep-28 09:29N 49°29' W 124°12'0 0.0
2017-Sep-28 08:59N 49°29' W 124°12'0 0.0
2017-Sep-28 08:26N 49°29' W 124°12'0 0.0
2017-Sep-28 07:59N 49°29' W 124°12'0 0.0
2017-Sep-28 07:29N 49°29' W 124°12'0 0.0
2017-Sep-28 07:00N 49°29' W 124°12'0 0.0
2017-Sep-28 06:29N 49°29' W 124°12'0 0.0
2017-Sep-28 06:00N 49°29' W 124°12'0 0.0
2017-Sep-28 05:30N 49°29' W 124°12'0 0.0
2017-Sep-28 04:59N 49°29' W 124°12'0 0.0
2017-Sep-28 04:30N 49°29' W 124°12'0 0.0
2017-Sep-28 03:56N 49°29' W 124°12'0 0.0
2017-Sep-28 03:29N 49°29' W 124°12'0 0.0
2017-Sep-28 02:59N 49°29' W 124°12'0 0.0
2017-Sep-28 02:26N 49°29' W 124°12'0 0.0
2017-Sep-28 01:59N 49°29' W 124°12'0 0.0
2017-Sep-28 01:29N 49°29' W 124°12'0 0.0
2017-Sep-28 00:59N 49°29' W 124°12'0 0.0
2017-Sep-28 00:29N 49°29' W 124°12'0 0.0
2017-Sep-28 00:00N 49°29' W 124°12'0 0.0
2017-Sep-27 23:26N 49°29' W 124°12'0 0.0
2017-Sep-27 22:56N 49°29' W 124°12'2 4.4
2017-Sep-27 22:30N 49°31' W 124°15'4 8.5
2017-Sep-27 22:00N 49°33' W 124°20'4 8.7
2017-Sep-27 21:30N 49°36' W 124°25'4 8.7
2017-Sep-27 21:00N 49°38' W 124°31'4 8.6
2017-Sep-27 20:30N 49°41' W 124°36'  
Track history (hours):
 
Tides and Currents Weather Stations Pressure Air Temp Water Temp Dewpoint Dewpoint Depression Visibility Wind Speed Wind Dir Waves Ship Positions

Sea Wolf

Owner: Sea Wolf Adventures, Inc, Gustavus, AK. More information available from US FCC via Universal Licensing System and Coast Guard Vessel Documentation Center.

Last reported at 2017-Oct-07 19:45 UTC. Time now 2017-Oct-19 14:55 UTC.
Position N 48°28' W 122°44'.
Warning: this ship's position is 11 days out of date.

Length 30 m.

Type: Passenger vessel. MMSI: 367085000.

Date/timePositionNaut miles runAvg speedWind from/ knotsBaromVisibWave heightAir tempDewpointWater temp
2017-Oct-07 19:45N 48°28' W 122°44'410.1
2017-Oct-07 19:21N 48°31' W 122°42'610.4
2017-Oct-07 18:49N 48°36' W 122°38'2 0.1
2017-Oct-07 00:22N 48°38' W 122°38'3 8.3
2017-Oct-07 00:00N 48°38' W 122°43'5 9.2
2017-Oct-06 23:30N 48°36' W 122°49'4 8.5
2017-Oct-06 23:00N 48°35' W 122°55'4 7.1
2017-Oct-06 22:28N 48°36' W 123°01'6 1.6
2017-Oct-06 18:51N 48°37' W 123°10'2 3.3
2017-Oct-06 18:12N 48°36' W 123°12'1 6.6
2017-Oct-06 18:00N 48°34' W 123°11'3 6.6
2017-Oct-06 17:30N 48°31' W 123°10'3 6.3
2017-Oct-06 17:00N 48°29' W 123°06'4 7.2
2017-Oct-06 16:22N 48°26' W 123°01'3 7.4
2017-Oct-06 16:00N 48°25' W 122°57'4 0.2
2017-Oct-05 18:31N 48°26' W 122°51'0 7.7
2017-Oct-05 18:30N 48°26' W 122°51'2 1.5
2017-Oct-05 17:21N 48°25' W 122°53'0 0.0
2017-Oct-05 16:45N 48°25' W 122°53'2 1.3
2017-Oct-05 15:30N 48°27' W 122°55'4 8.4
2017-Oct-05 15:00N 48°31' W 122°58'3 4.8
2017-Oct-05 14:20N 48°34' W 122°59'0 0.1
2017-Oct-05 13:59N 48°34' W 122°59'0 0.0
2017-Oct-05 13:23N 48°34' W 122°59'0 0.0
2017-Oct-05 12:59N 48°34' W 122°59'0 0.0
2017-Oct-05 12:29N 48°34' W 122°59'0 0.1
2017-Oct-05 11:59N 48°34' W 122°59'0 0.1
2017-Oct-05 11:26N 48°34' W 122°59'0 0.0
2017-Oct-05 10:59N 48°34' W 122°59'0 0.1
2017-Oct-05 10:29N 48°34' W 122°59'0 0.1
2017-Oct-05 09:59N 48°34' W 122°59'0 0.0
2017-Oct-05 09:20N 48°34' W 122°59'0 0.0
2017-Oct-05 08:59N 48°34' W 122°59'0 0.0
2017-Oct-05 08:26N 48°34' W 122°59'0 0.0
2017-Oct-05 07:53N 48°34' W 122°59'0 0.0
2017-Oct-05 07:29N 48°34' W 122°59'0 0.0
2017-Oct-05 06:59N 48°34' W 122°59'0 0.0
2017-Oct-05 06:29N 48°34' W 122°59'0 0.0
2017-Oct-05 05:59N 48°34' W 122°59'0 0.0
2017-Oct-05 05:29N 48°34' W 122°59'0 0.0
2017-Oct-05 04:59N 48°34' W 122°59'0 0.0
2017-Oct-05 04:29N 48°34' W 122°59'0 0.0
2017-Oct-05 03:59N 48°34' W 122°59'0 0.0
2017-Oct-05 03:23N 48°34' W 122°59'0 0.0
2017-Oct-05 02:59N 48°34' W 122°59'1 1.9
2017-Oct-05 02:30N 48°34' W 122°60'12 0.3
2017-Oct-03 08:42N 48°46' W 122°54'0 0.0
2017-Oct-02 11:30N 48°46' W 122°54'7 0.8
2017-Oct-02 02:11N 48°41' W 122°46'1 7.0
2017-Oct-02 01:58N 48°40' W 122°44'4 7.8
2017-Oct-02 01:30N 48°39' W 122°38'8 0.4
2017-Oct-01 03:12N 48°45' W 122°30'8 0.2
2017-Sep-29 16:18N 48°39' W 122°38'3 8.7
2017-Sep-29 16:00N 48°40' W 122°42'25 1.7
2017-Sep-29 01:38N 48°49' W 123°17'1 7.8
2017-Sep-29 01:30N 48°49' W 123°18'2 4.5
2017-Sep-29 01:00N 48°51' W 123°19'3 5.5
2017-Sep-29 00:29N 48°54' W 123°19'4 9.3
2017-Sep-29 00:00N 48°57' W 123°24'5 9.0
2017-Sep-28 23:29N 49°01' W 123°29'5 8.4
2017-Sep-28 22:51N 49°04' W 123°35'3 8.5
2017-Sep-28 22:30N 49°06' W 123°38'4 8.2
2017-Sep-28 22:00N 49°10' W 123°42'4 8.5
2017-Sep-28 21:29N 49°13' W 123°46'4 8.4
2017-Sep-28 21:00N 49°16' W 123°51'4 8.4
2017-Sep-28 20:31N 49°19' W 123°56'4 8.5
2017-Sep-28 20:01N 49°22' W 124°00'5 8.9
2017-Sep-28 19:30N 49°25' W 124°05'4 8.6
2017-Sep-28 19:00N 49°28' W 124°10'2 4.5
2017-Sep-28 18:29N 49°29' W 124°12'0 0.1
2017-Sep-28 17:59N 49°29' W 124°12'0 0.0
2017-Sep-28 17:29N 49°29' W 124°12'0 0.1
2017-Sep-28 17:00N 49°29' W 124°12'0 0.0
2017-Sep-28 16:26N 49°29' W 124°12'0 0.0
2017-Sep-28 15:59N 49°29' W 124°12'0 0.0
2017-Sep-28 15:29N 49°29' W 124°12'0 0.0
2017-Sep-28 14:59N 49°29' W 124°12'0 0.0
2017-Sep-28 14:29N 49°29' W 124°12'0 0.0
2017-Sep-28 13:59N 49°29' W 124°12'0 0.0
2017-Sep-28 13:23N 49°29' W 124°12'0 0.0
2017-Sep-28 12:59N 49°29' W 124°12'0 0.0
2017-Sep-28 12:29N 49°29' W 124°12'0 0.0
2017-Sep-28 11:59N 49°29' W 124°12'0 0.0
2017-Sep-28 11:26N 49°29' W 124°12'0 0.0
2017-Sep-28 10:59N 49°29' W 124°12'0 0.0
2017-Sep-28 10:29N 49°29' W 124°12'0 0.0
2017-Sep-28 09:53N 49°29' W 124°12'0 0.0
2017-Sep-28 09:29N 49°29' W 124°12'0 0.0
2017-Sep-28 08:59N 49°29' W 124°12'0 0.0
2017-Sep-28 08:26N 49°29' W 124°12'0 0.0
2017-Sep-28 07:59N 49°29' W 124°12'0 0.0
2017-Sep-28 07:29N 49°29' W 124°12'0 0.0
2017-Sep-28 07:00N 49°29' W 124°12'0 0.0
2017-Sep-28 06:29N 49°29' W 124°12'0 0.0
2017-Sep-28 06:00N 49°29' W 124°12'0 0.0
2017-Sep-28 05:30N 49°29' W 124°12'0 0.0
2017-Sep-28 04:59N 49°29' W 124°12'0 0.0
2017-Sep-28 04:30N 49°29' W 124°12'0 0.0
2017-Sep-28 03:56N 49°29' W 124°12'0 0.0
2017-Sep-28 03:29N 49°29' W 124°12'0 0.0
2017-Sep-28 02:59N 49°29' W 124°12'0 0.0
2017-Sep-28 02:26N 49°29' W 124°12'0 0.0
2017-Sep-28 01:59N 49°29' W 124°12'0 0.0
2017-Sep-28 01:29N 49°29' W 124°12'0 0.0
2017-Sep-28 00:59N 49°29' W 124°12'0 0.0
2017-Sep-28 00:29N 49°29' W 124°12'0 0.0
2017-Sep-28 00:00N 49°29' W 124°12'0 0.0
2017-Sep-27 23:26N 49°29' W 124°12'0 0.0
2017-Sep-27 22:56N 49°29' W 124°12'2 4.4
2017-Sep-27 22:30N 49°31' W 124°15'4 8.5
2017-Sep-27 22:00N 49°33' W 124°20'4 8.7
2017-Sep-27 21:30N 49°36' W 124°25'4 8.7
2017-Sep-27 21:00N 49°38' W 124°31'4 8.6
2017-Sep-27 20:30N 49°41' W 124°36'  

Dump ship's entire track history